Aérodrome :
LOGIN :

S'inscrire | Disclaimer

   EN    FR    IT 

 










Légende :    VFR   VFR Marginal   IFR   IFR Intensif   IFR Très Intensif
Visi : 
Plafond : 
>= 8 km
>= 3000ft
5 à 8 km
1000 à 3000 ft
1500m à 5 km
500 à 1000 ft
800 à 1500m
200 à 500 ft
< 800m
< 200 ft
Symboles :   Orages  Brouillard  Fortes neiges  Fortes précipitations  Vent > 20 kt
SIGMETs :   Divers  Orages  Givrage  Turbulence  Onde Orograph.  Cendres Volcan.






- Altitude de l'aérodrome : 63 ft
- Code IATA : BZM


EHWO - Woensdrecht Airbase

DERNIER METAR :
  • 240155Z AUTO VRB01KT 0800 FG BKN000 OVC001 02/02 Q1025 RED

METARs EXPIRÉS :
  • 240125Z AUTO VRB02KT 0650 FG VV000 02/02 Q1025 RED
  • 240055Z AUTO VRB02KT 0550 FG VV000 02/02 Q1025 RED
  • 240025Z AUTO 07003KT 040V150 0650 FG VV000 02/02 Q1026 RED
  • 232356Z AUTO VRB02KT 0700 FG VV000 02/02 Q1026 RED
  • 232325Z AUTO VRB02KT 1800 BR OVC001 02/02 Q1026 RED
  • 232312Z AUTO 15003KT 110V180 1600 BR OVC002 02/02 Q1026 AMB

Prévision TAF périmée.



MET'MAP, la Météo Aéronautique d'un coup d'oeil ! - Copyright ORBIFLY Décembre 2007 - Disclaimer

ORBIFLY MET'MAP TEAM :

Programmation & Développement : Alexandra Zaïnal
Sur une idée originale de : Baudouin d'Aumeries
Assistance à la programmation : Marc-Olivier Méhu
Soutien technique & logistique : Manuel Goepfert

Contact : metmap@orbifly.com




SOURCES & CREDITS :

   NOAA